createdAt,value
2023-02-22T00:00:11.965Z,-2.90745
2023-02-22T00:05:13.734Z,-2.92555
2023-02-22T00:10:15.325Z,-3.36695
2023-02-22T00:15:17.145Z,-3.05384
2023-02-22T00:20:19.023Z,-3.33551
2023-02-22T00:25:20.649Z,-2.45176
2023-02-22T00:30:22.439Z,-2.67246
2023-02-22T00:35:24.078Z,-3.46126
2023-02-22T00:40:25.703Z,-3.19007
2023-02-22T00:45:27.412Z,-2.9192
2023-02-22T00:50:29.038Z,-2.23995
2023-02-22T00:55:30.623Z,-2.79758
2023-02-22T01:00:32.270Z,-2.73915
2023-02-22T01:05:33.872Z,-2.59498
2023-02-22T01:10:35.947Z,-1.96749
2023-02-22T01:15:37.634Z,-1.75822
2023-02-22T01:20:39.253Z,-1.85444
2023-02-22T01:25:40.870Z,-2.58958
2023-02-22T01:30:42.685Z,-2.50035
2023-02-22T01:35:44.453Z,-2.7998
2023-02-22T01:40:46.293Z,-2.77027
2023-02-22T01:45:48.053Z,-2.70009
2023-02-22T01:50:49.698Z,-2.37428
2023-02-22T01:55:51.307Z,-3.3625
2023-02-22T02:00:53.017Z,-3.48285
2023-02-22T02:05:54.591Z,-3.41267
2023-02-22T02:10:56.184Z,-2.67151
2023-02-22T02:15:58.070Z,-3.22627
2023-02-22T02:20:59.682Z,-4.13002
2023-02-22T02:26:01.286Z,-3.71435
2023-02-22T02:31:03.009Z,-3.14688
2023-02-22T02:36:04.618Z,-3.10783
2023-02-22T02:41:06.256Z,-2.86109
2023-02-22T02:46:07.997Z,-3.33964
2023-02-22T02:51:09.613Z,-2.75947
2023-02-22T02:56:11.309Z,-2.98779
2023-02-22T03:01:13.225Z,-2.72232
2023-02-22T03:06:14.867Z,-3.31106
2023-02-22T03:11:16.863Z,-3.4746
2023-02-22T03:16:18.756Z,-3.11354
2023-02-22T03:21:20.454Z,-4.49837
2023-02-22T03:26:22.049Z,-3.50032
2023-02-22T03:31:24.012Z,-3.74229
2023-02-22T03:36:25.643Z,-3.49778
2023-02-22T03:41:27.272Z,-3.88646
2023-02-22T03:46:29.013Z,-3.98267
2023-02-22T03:51:30.736Z,-4.31038
2023-02-22T03:56:34.425Z,-3.9868
2023-02-22T04:01:36.514Z,-4.23544
2023-02-22T04:06:38.159Z,-4.96167
2023-02-22T04:11:39.780Z,-4.20718
2023-02-22T04:16:41.456Z,-4.48694
2023-02-22T04:21:43.078Z,-4.29451
2023-02-22T04:26:44.767Z,-4.5406
2023-02-22T04:31:46.640Z,-3.78389
2023-02-22T04:36:48.268Z,-4.70605
2023-02-22T04:41:49.901Z,-4.41263
2023-02-22T04:46:51.666Z,-4.70096
2023-02-22T04:51:53.293Z,-4.82163
2023-02-22T04:56:54.914Z,-5.33097
2023-02-22T05:01:56.609Z,-5.55579
2023-02-22T05:06:58.289Z,-5.10202
2023-02-22T05:11:59.928Z,-4.5822
2023-02-22T05:17:01.740Z,-4.36341
2023-02-22T05:22:03.443Z,-4.46376
2023-02-22T05:27:05.102Z,-4.56061
2023-02-22T05:32:06.925Z,-5.22364
2023-02-22T05:37:08.639Z,-4.89371
2023-02-22T05:42:10.299Z,-5.27763
2023-02-22T05:47:12.011Z,-5.22777
2023-02-22T05:52:13.601Z,-4.89943
2023-02-22T05:57:15.261Z,-5.14203
2023-02-22T06:02:17.212Z,-5.14584
2023-02-22T06:07:18.995Z,-4.73113
2023-02-22T06:12:20.590Z,-4.91023
2023-02-22T06:17:22.595Z,-4.82989
2023-02-22T06:22:24.207Z,-4.88038
2023-02-22T06:27:25.793Z,-5.30779
2023-02-22T06:32:27.598Z,-5.07853
2023-02-22T06:37:29.364Z,-5.42084
2023-02-22T06:42:30.960Z,-5.31287
2023-02-22T06:47:32.685Z,-5.65042
2023-02-22T06:52:34.289Z,-5.60692
2023-02-22T06:57:35.893Z,-6.01305
2023-02-22T07:02:37.681Z,-5.66979
2023-02-22T07:07:39.322Z,-5.44307
2023-02-22T07:12:41.032Z,-5.92541
2023-02-22T07:17:42.804Z,-6.40109
2023-02-22T07:22:44.431Z,-6.49254
2023-02-22T07:27:46.077Z,-6.53572
2023-02-22T07:32:47.893Z,-5.99464
2023-02-22T07:37:49.572Z,-6.06862
2023-02-22T07:42:51.219Z,-6.09466
2023-02-22T07:47:52.945Z,-6.20771
2023-02-22T07:52:54.580Z,-6.23184
2023-02-22T07:57:56.241Z,-5.70536
2023-02-22T08:02:58.029Z,-6.39442
2023-02-22T08:07:59.656Z,-5.93526
2023-02-22T08:13:01.299Z,-5.79871
2023-02-22T08:18:03.099Z,-6.07751
2023-02-22T08:23:04.700Z,-5.41798
2023-02-22T08:28:06.368Z,-5.42719
2023-02-22T08:33:08.206Z,-5.60342
2023-02-22T08:38:09.905Z,-6.18579
2023-02-22T08:43:11.519Z,-6.60495
2023-02-22T08:48:13.092Z,-5.95081
2023-02-22T08:53:14.708Z,-6.38362
2023-02-22T08:58:16.370Z,-6.14674
2023-02-22T09:03:18.068Z,-5.44973
2023-02-22T09:08:19.890Z,-6.10482
2023-02-22T09:13:21.528Z,-6.11689
2023-02-22T09:18:23.710Z,-5.97844
2023-02-22T09:23:26.086Z,-7.10824
2023-02-22T09:28:29.137Z,-6.19786
2023-02-22T09:33:30.936Z,-6.75165
2023-02-22T09:38:32.613Z,-7.16095
2023-02-22T09:43:34.347Z,-6.04449
2023-02-22T09:48:36.040Z,-7.11745
2023-02-22T09:53:37.764Z,-6.96758
2023-02-22T09:58:41.716Z,-7.10888
2023-02-22T10:03:43.769Z,-7.61916
2023-02-22T10:08:45.567Z,-6.58494
2023-02-22T10:13:47.178Z,-7.20509
2023-02-22T10:18:48.845Z,-6.72561
2023-02-22T10:23:50.422Z,-6.36775
2023-02-22T10:28:52.037Z,-6.60526
2023-02-22T10:33:53.721Z,-6.36838
2023-02-22T10:38:55.351Z,-6.32932
2023-02-22T10:43:56.929Z,-6.01305
2023-02-22T10:48:58.566Z,-6.87104
2023-02-22T10:54:00.262Z,-6.77038
2023-02-22T10:59:01.948Z,-7.19144
2023-02-22T11:04:03.457Z,-6.86406
2023-02-22T11:09:05.042Z,-7.10062
2023-02-22T11:14:06.738Z,-6.91169
2023-02-22T11:19:08.404Z,-7.69918
2023-02-22T11:24:10.255Z,-8.19199
2023-02-22T11:29:11.917Z,-7.97162
2023-02-22T11:34:13.539Z,-8.03005
2023-02-22T11:39:15.176Z,-7.9097
2023-02-22T11:44:16.792Z,-7.89891
2023-02-22T11:49:18.394Z,-7.91351
2023-02-22T11:54:20.267Z,-7.5366
2023-02-22T11:59:21.961Z,-7.76427
2023-02-22T12:04:23.612Z,-7.8916
2023-02-22T12:09:25.214Z,-8.01893
2023-02-22T12:14:26.904Z,-8.13515
2023-02-22T12:19:28.540Z,-7.86461
2023-02-22T12:24:30.177Z,-8.46221
2023-02-22T12:29:31.782Z,-8.15389
2023-02-22T12:34:33.460Z,-8.03894
2023-02-22T12:39:47.094Z,-7.5239
2023-02-22T12:44:53.856Z,-8.52699
2023-02-22T12:49:55.449Z,-8.03195
2023-02-22T12:54:57.092Z,-8.46761
2023-02-22T12:59:58.707Z,-8.34028
2023-02-22T13:05:00.385Z,-8.6486
2023-02-22T13:10:02.056Z,-8.19294
2023-02-22T13:15:03.678Z,-8.80768
2023-02-22T13:20:05.304Z,-9.08997
2023-02-22T13:25:06.898Z,-9.38781
2023-02-22T13:30:08.655Z,-8.90866
2023-02-22T13:35:10.347Z,-9.04837
2023-02-22T13:40:12.048Z,-9.03694
2023-02-22T13:45:13.638Z,-8.17484
2023-02-22T13:50:15.385Z,-8.741
2023-02-22T13:55:17.066Z,-8.8515
2023-02-22T14:00:18.949Z,-8.11229
2023-02-22T14:05:21.056Z,-8.90326
2023-02-22T14:10:22.740Z,-8.6848
2023-02-22T14:15:29.797Z,-9.40909
2023-02-22T14:20:32.599Z,-8.90802
2023-02-22T14:25:34.388Z,-8.85341
2023-02-22T14:30:36.150Z,-8.57017
2023-02-22T14:35:49.187Z,-9.00233
2023-02-22T14:40:51.873Z,-9.04742
2023-02-22T14:45:53.834Z,-9.22428
2023-02-22T14:50:55.697Z,-9.34749
2023-02-22T14:55:57.272Z,-9.74376
2023-02-22T15:00:58.879Z,-8.72481
2023-02-22T15:06:00.489Z,-8.96835
2023-02-22T15:11:02.081Z,-9.52054
2023-02-22T15:16:03.748Z,-8.65495
2023-02-22T15:21:06.938Z,-9.51927
2023-02-22T15:26:08.733Z,-9.51006
2023-02-22T15:31:10.379Z,-8.95026
2023-02-22T15:36:12.007Z,-8.72767
2023-02-22T15:41:13.621Z,-8.75307
2023-02-22T15:46:15.304Z,-9.0398
2023-02-22T15:51:17.243Z,-9.96508
2023-02-22T15:56:19.030Z,-8.53842
2023-02-22T16:01:21.302Z,-9.4745
2023-02-22T16:06:23.336Z,-8.73592
2023-02-22T16:11:25.002Z,-8.84007
2023-02-22T16:16:26.775Z,-8.36441
2023-02-22T16:21:28.404Z,-8.59684
2023-02-22T16:26:29.998Z,-8.99058
2023-02-22T16:31:31.655Z,-9.24429
2023-02-22T16:36:33.336Z,-8.39426
2023-02-22T16:41:34.953Z,-9.34939
2023-02-22T16:46:36.818Z,-8.83499
2023-02-22T16:51:38.444Z,-8.63622
2023-02-22T16:56:40.089Z,-7.7449
2023-02-22T17:01:41.733Z,-8.45046
2023-02-22T17:06:43.346Z,-7.36958
2023-02-22T17:11:44.989Z,-8.5797
2023-02-22T17:16:46.601Z,-8.43236
2023-02-22T17:21:48.281Z,-7.99734
2023-02-22T17:26:49.922Z,-8.26979
2023-02-22T17:31:51.548Z,-7.98369
2023-02-22T17:36:53.175Z,-7.609
2023-02-22T17:41:54.931Z,-8.34536
2023-02-22T17:46:56.572Z,-7.99258
2023-02-22T17:51:58.209Z,-7.27051
2023-02-22T17:56:59.828Z,-6.09593
2023-02-22T18:02:01.534Z,-7.21779
2023-02-22T18:07:03.138Z,-7.40419
2023-02-22T18:12:05.022Z,-7.71537
2023-02-22T18:17:06.597Z,-6.88311
2023-02-22T18:22:08.205Z,-7.32861
2023-02-22T18:27:09.793Z,-6.24994
2023-02-22T18:32:11.417Z,-7.56042
2023-02-22T18:37:13.136Z,-6.74403
2023-02-22T18:42:14.867Z,-5.84317
2023-02-22T18:47:16.488Z,-4.94865
2023-02-22T18:52:18.139Z,-6.23787
2023-02-22T18:57:19.741Z,-4.56124
2023-02-22T19:02:21.372Z,-6.0356
2023-02-22T19:07:23.012Z,-5.38591
2023-02-22T19:12:24.640Z,-6.63511
2023-02-22T19:17:26.302Z,-5.84539
2023-02-22T19:22:28.020Z,-6.14039
2023-02-22T19:27:29.653Z,-5.69773
2023-02-22T19:32:31.368Z,-6.12197
2023-02-22T19:37:33.002Z,-4.73367
2023-02-22T19:42:34.587Z,-6.02163
2023-02-22T19:47:36.216Z,-5.3659
2023-02-22T19:52:38.045Z,-4.77337
2023-02-22T19:57:39.632Z,-4.71557
2023-02-22T20:02:41.288Z,-5.39988
2023-02-22T20:07:42.890Z,-5.61708
2023-02-22T20:12:44.489Z,-5.07599
2023-02-22T20:17:46.127Z,-5.50657
2023-02-22T20:22:47.734Z,-4.36976
2023-02-22T20:27:49.311Z,-5.38083
2023-02-22T20:32:51.558Z,-5.34653
2023-02-22T20:37:53.360Z,-6.26105
2023-02-22T20:42:55.017Z,-6.40553
2023-02-22T20:47:56.622Z,-6.38521
2023-02-22T20:52:58.247Z,-6.57573
2023-02-22T20:57:59.942Z,-6.74562
2023-02-22T21:03:01.576Z,-6.38839
2023-02-22T21:08:03.208Z,-5.62311
2023-02-22T21:13:05.638Z,-7.20605
2023-02-22T21:18:09.967Z,-6.21755
2023-02-22T21:23:11.553Z,-6.50302
2023-02-22T21:28:13.291Z,-6.39378
2023-02-22T21:33:14.985Z,-8.07292
2023-02-22T21:38:16.613Z,-6.41823
2023-02-22T21:43:18.287Z,-6.56303
2023-02-22T21:48:19.986Z,-7.28829
2023-02-22T21:53:21.589Z,-6.91105
2023-02-22T21:58:23.345Z,-8.46253
2023-02-22T22:03:25.006Z,-7.24542
2023-02-22T22:08:26.758Z,-8.10054
2023-02-22T22:13:28.408Z,-7.2975
2023-02-22T22:18:30.131Z,-7.86588
2023-02-22T22:23:31.818Z,-9.22778
2023-02-22T22:28:33.436Z,-8.71655
2023-02-22T22:33:35.056Z,-9.08552
2023-02-22T22:38:36.769Z,-7.64774
2023-02-22T22:43:38.423Z,-7.89129
2023-02-22T22:48:40.072Z,-9.23571
2023-02-22T22:53:41.705Z,-8.59049
2023-02-22T22:58:43.386Z,-8.57525
2023-02-22T23:03:45.086Z,-8.81848
2023-02-22T23:08:46.801Z,-8.19771
2023-02-22T23:13:48.426Z,-8.16087
2023-02-22T23:18:50.202Z,-8.11102
2023-02-22T23:23:51.843Z,-7.59884
2023-02-22T23:28:53.487Z,-7.97766
2023-02-22T23:33:55.089Z,-8.65749
2023-02-22T23:38:56.753Z,-8.40759
2023-02-22T23:43:58.440Z,-7.95797
2023-02-22T23:49:00.108Z,-7.34798
2023-02-22T23:54:01.819Z,-7.72903
2023-02-22T23:59:03.449Z,-7.46547
